Time;durP1;ratioP1;P1;durP2;ratioP2;P2;SDS_P1;SDS_P2;PMS_P1;PMS_P2;Temp;Humidity;BMP_temperature;BMP_pressure;BME280_temperature;BME280_humidity;BME280_pressure;Samples;Min_cycle;Max_cycle;Signal;HPM_P1;HPM_P2
2023/05/23 00:01:00;;;;;;;8.38;3.35;;;;;;;24.88;27.85;100840.94;5015608;27;97147;-76
2023/05/23 00:03:27;;;;;;;5.13;3.00;;;;;;;24.89;27.68;100839.97;5028301;27;97113;-76
2023/05/23 00:05:55;;;;;;;5.18;2.97;;;;;;;24.94;27.55;100834.97;5012875;27;99765;-76
2023/05/23 00:08:21;;;;;;;7.13;3.33;;;;;;;24.74;28.28;100833.28;5028309;27;99290;-75
2023/05/23 00:10:49;;;;;;;5.70;2.95;;;;;;;24.58;28.35;100824.91;5023471;27;97815;-75
2023/05/23 00:13:16;;;;;;;9.15;3.47;;;;;;;24.69;27.99;100822.03;5025726;28;97909;-76
2023/05/23 00:15:43;;;;;;;8.05;3.75;;;;;;;24.72;28.29;100821.75;5026511;27;99036;-76
2023/05/23 00:18:10;;;;;;;8.68;3.50;;;;;;;24.63;28.47;100823.47;5022837;27;99188;-76
2023/05/23 00:20:39;;;;;;;7.43;3.45;;;;;;;24.74;28.28;100819.78;5018511;27;96850;-74
2023/05/23 00:23:06;;;;;;;6.70;2.97;;;;;;;24.38;28.60;100821.34;5029257;27;98714;-76
2023/05/23 00:25:34;;;;;;;6.47;3.35;;;;;;;24.41;28.63;100812.97;5026349;27;98848;-75
2023/05/23 00:28:02;;;;;;;6.10;3.65;;;;;;;24.43;28.57;100819.06;5020252;27;99081;-76
2023/05/23 00:30:30;;;;;;;5.40;3.20;;;;;;;24.49;28.50;100812.22;5026263;27;97741;-75
2023/05/23 00:32:56;;;;;;;9.25;3.42;;;;;;;24.40;28.57;100805.84;5025875;27;96749;-75
2023/05/23 00:35:23;;;;;;;6.53;3.22;;;;;;;24.47;28.62;100806.13;5026901;27;99000;-76
2023/05/23 00:37:50;;;;;;;6.97;3.47;;;;;;;24.46;28.92;100809.84;5027014;27;99157;-76
2023/05/23 00:40:17;;;;;;;8.23;3.55;;;;;;;24.57;28.63;100815.09;5024277;27;96852;-76
2023/05/23 00:42:43;;;;;;;5.03;2.97;;;;;;;24.55;28.63;100803.56;5023882;27;96831;-75
2023/05/23 00:45:12;;;;;;;6.93;3.35;;;;;;;24.53;28.69;100805.56;5021328;27;98991;-77
2023/05/23 00:47:39;;;;;;;8.40;3.83;;;;;;;24.18;29.23;100806.94;5031992;27;98753;-76
2023/05/23 00:50:08;;;;;;;11.48;3.25;;;;;;;24.21;29.45;100811.25;5013979;27;96821;-76
2023/05/23 00:52:34;;;;;;;8.30;3.42;;;;;;;24.25;29.38;100801.00;5029693;27;96869;-75
2023/05/23 00:55:00;;;;;;;7.22;3.05;;;;;;;24.30;29.30;100790.63;5027904;27;99057;-75
2023/05/23 00:57:27;;;;;;;14.32;3.33;;;;;;;24.30;29.25;100782.53;5028783;27;98761;-75
2023/05/23 00:59:53;;;;;;;6.90;3.00;;;;;;;24.41;28.97;100785.09;5015770;27;96810;-76
2023/05/23 01:02:21;;;;;;;9.93;3.42;;;;;;;24.50;29.09;100786.94;5025589;27;96910;-75
2023/05/23 01:04:53;;;;;;;7.63;3.38;;;;;;;24.41;29.13;100790.50;5025917;27;98878;-76
2023/05/23 01:07:19;;;;;;;8.60;3.22;;;;;;;24.29;29.35;100786.22;5026731;27;98181;-75
2023/05/23 01:09:46;;;;;;;5.15;3.22;;;;;;;24.30;29.60;100782.53;5025583;27;96930;-75
2023/05/23 01:12:19;;;;;;;4.90;3.25;;;;;;;24.25;29.41;100782.94;5024563;27;97787;-76
2023/05/23 01:14:51;;;;;;;8.80;3.47;;;;;;;24.33;29.21;100777.72;5026395;27;98987;-75
2023/05/23 01:17:26;;;;;;;5.18;3.50;;;;;;;24.22;29.39;100770.56;5018917;27;99061;-76
2023/05/23 01:20:00;;;;;;;6.73;3.23;;;;;;;23.90;30.43;100774.47;5026049;27;97181;-77
2023/05/23 01:22:59;;;;;;;9.23;3.38;;;;;;;24.12;29.98;100769.69;5024478;27;96813;-76
2023/05/23 01:25:45;;;;;;;5.80;3.25;;;;;;;24.29;29.62;100768.16;5023214;27;99267;-76
2023/05/23 01:28:18;;;;;;;10.95;3.72;;;;;;;24.05;29.98;100768.56;5022139;27;97981;-76
2023/05/23 01:30:46;;;;;;;7.78;3.65;;;;;;;24.25;29.76;100769.44;5021682;27;97182;-76
2023/05/23 01:33:14;;;;;;;10.43;3.17;;;;;;;24.34;29.45;100774.00;5021809;27;96830;-76
2023/05/23 01:35:42;;;;;;;4.38;3.28;;;;;;;24.26;29.53;100776.56;5011718;27;98976;-77
2023/05/23 01:38:09;;;;;;;6.00;3.45;;;;;;;24.17;29.81;100764.72;5024075;27;98764;-76
2023/05/23 01:40:36;;;;;;;3.38;3.08;;;;;;;24.23;29.36;100763.34;5015940;27;96849;-76
2023/05/23 01:43:02;;;;;;;6.03;3.20;;;;;;;24.40;29.17;100761.78;5023980;27;97031;-77
2023/05/23 01:45:31;;;;;;;7.72;3.58;;;;;;;24.27;29.72;100769.31;5017380;27;98224;-76
2023/05/23 01:47:58;;;;;;;7.07;3.95;;;;;;;24.21;29.73;100765.34;5022193;27;98868;-76
2023/05/23 01:50:25;;;;;;;8.82;3.35;;;;;;;24.27;29.57;100766.63;5015881;27;96939;-76
2023/05/23 01:52:54;;;;;;;9.57;3.15;;;;;;;24.35;29.40;100762.19;5018647;27;97345;-76
2023/05/23 01:55:23;;;;;;;9.15;3.65;;;;;;;24.24;29.59;100756.94;5019082;27;99285;-77
2023/05/23 01:57:50;;;;;;;5.90;3.75;;;;;;;24.28;29.90;100757.53;5021247;27;98933;-76
2023/05/23 02:00:18;;;;;;;7.07;3.17;;;;;;;24.39;29.62;100762.78;5019364;27;96807;-75
2023/05/23 02:02:46;;;;;;;4.75;3.47;;;;;;;24.28;29.73;100752.97;5019529;27;97139;-76
2023/05/23 02:05:12;;;;;;;6.28;3.60;;;;;;;24.08;30.61;100762.03;5023324;27;98985;-75
2023/05/23 02:07:38;;;;;;;6.53;4.05;;;;;;;24.00;30.36;100764.56;5025312;27;98860;-75
2023/05/23 02:10:08;;;;;;;6.13;3.60;;;;;;;24.30;29.57;100767.16;5022500;27;96726;-76
2023/05/23 02:12:35;;;;;;;4.95;3.65;;;;;;;23.86;31.85;100762.28;5026564;27;96885;-77
2023/05/23 02:15:01;;;;;;;9.70;3.70;;;;;;;23.76;32.10;100773.06;5016745;27;99018;-75
2023/05/23 02:17:27;;;;;;;6.28;3.75;;;;;;;24.00;30.94;100767.28;5019669;27;99726;-76
2023/05/23 02:19:55;;;;;;;5.45;3.38;;;;;;;23.89;31.60;100776.34;5023762;27;96867;-76
2023/05/23 02:22:23;;;;;;;10.43;3.58;;;;;;;23.92;31.61;100770.66;5019703;27;99041;-75
2023/05/23 02:24:50;;;;;;;5.15;3.55;;;;;;;23.95;31.34;100765.00;5023816;27;99217;-75
2023/05/23 02:27:17;;;;;;;5.32;3.88;;;;;;;23.76;31.40;100764.97;5017607;27;99239;-75
2023/05/23 02:29:43;;;;;;;5.32;3.72;;;;;;;23.83;31.23;100768.78;5024745;27;96989;-75
2023/05/23 02:32:09;;;;;;;9.57;4.05;;;;;;;23.64;31.68;100766.03;5023437;27;97669;-76
2023/05/23 02:34:37;;;;;;;10.65;4.22;;;;;;;23.51;31.65;100762.72;5024522;27;98038;-76
2023/05/23 02:37:05;;;;;;;7.97;4.15;;;;;;;24.02;30.60;100758.06;5030636;27;99090;-75
2023/05/23 02:39:31;;;;;;;5.35;3.55;;;;;;;24.26;30.21;100760.38;5028454;27;96912;-75
2023/05/23 02:41:57;;;;;;;8.65;3.92;;;;;;;24.29;29.95;100751.09;5021670;27;97126;-76
2023/05/23 02:44:24;;;;;;;8.40;4.07;;;;;;;24.42;29.83;100754.38;5021971;27;100817;-75
2023/05/23 02:46:50;;;;;;;7.57;3.83;;;;;;;24.39;30.19;100747.44;5025659;27;99432;-76
2023/05/23 02:49:16;;;;;;;9.15;4.10;;;;;;;24.32;30.05;100753.53;5024748;27;96872;-76
2023/05/23 02:51:43;;;;;;;8.60;3.58;;;;;;;24.02;31.02;100759.91;5026768;27;96797;-75
2023/05/23 02:54:10;;;;;;;9.32;3.70;;;;;;;24.21;30.45;100744.59;5031416;27;97707;-75
2023/05/23 02:56:37;;;;;;;7.40;3.92;;;;;;;24.01;30.99;100747.38;5028186;27;99358;-75
2023/05/23 02:59:03;;;;;;;5.85;3.85;;;;;;;24.10;31.56;100749.22;5027741;27;96849;-75
2023/05/23 03:01:30;;;;;;;4.78;3.42;;;;;;;23.85;31.42;100753.31;5023093;27;96905;-76
2023/05/23 03:03:56;;;;;;;6.60;4.00;;;;;;;23.84;31.51;100751.59;5026837;27;98891;-75
2023/05/23 03:06:23;;;;;;;8.30;3.95;;;;;;;23.89;31.79;100759.31;5021536;27;98799;-76
2023/05/23 03:08:49;;;;;;;4.55;3.50;;;;;;;23.89;31.90;100756.59;5028986;27;96882;-75
2023/05/23 03:11:17;;;;;;;10.60;3.80;;;;;;;23.72;32.44;100753.56;5018982;27;97616;-76
2023/05/23 03:13:43;;;;;;;6.25;3.75;;;;;;;23.72;32.87;100745.50;5031123;27;99143;-75
2023/05/23 03:16:11;;;;;;;7.68;3.58;;;;;;;23.75;32.55;100742.53;5017370;27;99304;-75
2023/05/23 03:18:37;;;;;;;11.73;3.67;;;;;;;23.41;34.04;100738.41;5029305;27;96885;-75
2023/05/23 03:21:04;;;;;;;14.43;3.88;;;;;;;23.49;33.75;100746.72;5021837;27;97611;-76
2023/05/23 03:23:30;;;;;;;6.57;4.03;;;;;;;23.48;32.95;100744.16;5026171;27;98710;-75
2023/05/23 03:25:56;;;;;;;7.10;3.97;;;;;;;23.57;32.63;100737.91;5023956;27;98932;-75
2023/05/23 03:28:24;;;;;;;7.85;3.85;;;;;;;23.48;32.84;100741.44;5024895;27;98148;-76
2023/05/23 03:30:50;;;;;;;7.93;3.85;;;;;;;23.37;32.83;100734.28;5021820;27;96943;-76
2023/05/23 03:33:16;;;;;;;8.13;4.28;;;;;;;23.72;32.12;100739.22;5029431;27;99002;-76
2023/05/23 03:35:43;;;;;;;5.95;3.90;;;;;;;23.58;33.01;100745.00;5023019;27;98951;-76
2023/05/23 03:38:09;;;;;;;5.85;4.00;;;;;;;23.47;33.45;100740.59;5022904;27;97741;-74
2023/05/23 03:40:36;;;;;;;7.97;3.75;;;;;;;23.32;33.76;100736.53;5026715;27;96887;-76
2023/05/23 03:43:03;;;;;;;12.65;4.45;;;;;;;23.58;32.91;100726.13;5028103;27;98966;-76
2023/05/23 03:45:31;;;;;;;7.47;4.55;;;;;;;23.66;32.54;100734.41;5030195;27;100168;-76
2023/05/23 03:47:57;;;;;;;6.40;4.30;;;;;;;23.69;32.54;100734.13;5024569;27;96913;-76
2023/05/23 03:50:24;;;;;;;15.35;4.32;;;;;;;23.63;32.69;100737.38;5025714;27;97255;-77
2023/05/23 03:52:50;;;;;;;7.60;4.20;;;;;;;23.55;32.58;100732.69;5027271;27;99327;-75
2023/05/23 03:55:20;;;;;;;7.65;4.20;;;;;;;23.63;32.69;100723.91;5017674;27;98783;-75
2023/05/23 03:57:47;;;;;;;8.27;4.10;;;;;;;23.81;32.22;100727.63;5019573;27;97726;-76
2023/05/23 04:00:14;;;;;;;8.75;3.97;;;;;;;23.88;32.26;100722.53;5029364;27;96804;-76
2023/05/23 04:02:42;;;;;;;5.72;4.03;;;;;;;23.87;32.42;100726.19;5027258;27;99174;-75
2023/05/23 04:05:09;;;;;;;8.27;4.60;;;;;;;23.93;32.32;100729.19;5018248;27;99358;-75
2023/05/23 04:07:37;;;;;;;15.88;5.07;;;;;;;24.07;32.14;100725.22;5024552;27;96877;-75
2023/05/23 04:10:03;;;;;;;11.70;5.30;;;;;;;23.98;32.16;100726.91;5014874;27;96980;-75
2023/05/23 04:12:30;;;;;;;8.35;4.30;;;;;;;24.19;31.32;100726.81;5023346;27;98969;-76
2023/05/23 04:14:56;;;;;;;9.45;4.22;;;;;;;23.90;31.66;100726.75;5015472;27;98838;-76
2023/05/23 04:17:23;;;;;;;11.68;4.45;;;;;;;24.05;31.90;100729.91;5023030;27;96923;-76
2023/05/23 04:19:50;;;;;;;10.98;5.20;;;;;;;23.99;32.14;100739.44;5018290;27;96899;-77
2023/05/23 04:22:17;;;;;;;14.40;4.85;;;;;;;24.10;31.99;100743.81;5024018;27;97850;-76
2023/05/23 04:24:43;;;;;;;11.55;5.07;;;;;;;23.94;32.76;100740.84;5015868;27;98891;-75
2023/05/23 04:27:10;;;;;;;13.82;4.95;;;;;;;23.86;33.54;100741.53;5028364;27;97058;-76
2023/05/23 04:29:37;;;;;;;8.88;4.40;;;;;;;23.86;34.18;100735.28;5024687;27;96880;-76
2023/05/23 04:32:04;;;;;;;9.55;4.50;;;;;;;23.51;35.93;100743.84;5015454;27;98833;-75
2023/05/23 04:34:32;;;;;;;8.43;4.40;;;;;;;23.47;34.83;100739.72;5027163;27;98829;-75
2023/05/23 04:37:01;;;;;;;14.57;5.75;;;;;;;23.60;34.27;100729.56;5023750;27;97131;-75
2023/05/23 04:39:27;;;;;;;10.55;4.85;;;;;;;23.78;33.09;100734.13;5024040;27;97151;-76
2023/05/23 04:41:54;;;;;;;6.20;4.35;;;;;;;23.80;33.13;100729.47;5025246;27;98928;-76
2023/05/23 04:44:20;;;;;;;12.05;4.32;;;;;;;23.64;33.99;100730.97;5022126;27;98917;-76
2023/05/23 04:46:47;;;;;;;9.77;4.72;;;;;;;23.77;33.67;100737.81;5019171;27;96885;-75
2023/05/23 04:49:13;;;;;;;15.23;4.95;;;;;;;23.37;35.01;100734.28;5017848;27;96832;-75
2023/05/23 04:51:40;;;;;;;10.85;4.82;;;;;;;23.62;34.56;100725.75;5023657;27;99397;-75
2023/05/23 04:54:08;;;;;;;10.43;4.32;;;;;;;23.50;34.63;100723.31;5019051;27;99234;-75
2023/05/23 04:56:34;;;;;;;12.25;4.47;;;;;;;23.42;34.64;100722.09;5020367;27;96920;-76
2023/05/23 04:59:01;;;;;;;9.07;4.53;;;;;;;23.46;34.52;100730.75;5025164;27;97076;-75
2023/05/23 05:01:27;;;;;;;9.45;4.80;;;;;;;23.48;34.44;100720.72;5026498;27;99785;-74
2023/05/23 05:03:54;;;;;;;5.10;4.20;;;;;;;23.52;34.54;100724.84;5021453;27;99450;-75
2023/05/23 05:06:21;;;;;;;9.70;4.68;;;;;;;23.57;34.71;100724.41;5026092;27;97113;-76
2023/05/23 05:08:47;;;;;;;7.65;3.95;;;;;;;23.39;35.10;100721.50;5021498;27;96947;-75
2023/05/23 05:11:14;;;;;;;8.10;4.25;;;;;;;23.48;35.33;100731.53;5014833;27;99062;-76
2023/05/23 05:13:41;;;;;;;9.05;4.90;;;;;;;23.26;35.91;100726.28;5018514;27;99073;-72
2023/05/23 05:16:07;;;;;;;10.07;4.65;;;;;;;23.10;35.79;100734.03;5019629;27;98673;-73
2023/05/23 05:18:34;;;;;;;11.98;6.15;;;;;;;23.11;35.43;100744.66;5021403;27;97361;-72
2023/05/23 05:21:00;;;;;;;13.50;6.28;;;;;;;23.35;35.02;100737.13;5022680;27;97860;-74
2023/05/23 05:23:28;;;;;;;10.63;4.40;;;;;;;23.21;35.17;100734.78;5021830;27;100230;-71
2023/05/23 05:25:55;;;;;;;13.00;4.68;;;;;;;23.15;35.66;100743.41;5014515;27;99630;-73
2023/05/23 05:28:23;;;;;;;11.80;4.90;;;;;;;23.17;35.31;100732.50;5022482;27;96801;-73
2023/05/23 05:30:52;;;;;;;8.60;4.55;;;;;;;23.17;35.55;100736.03;5018345;27;99987;-71
2023/05/23 05:33:19;;;;;;;11.27;4.57;;;;;;;23.11;35.76;100738.41;5023336;27;98701;-73
2023/05/23 05:35:45;;;;;;;7.53;4.10;;;;;;;23.14;35.81;100743.56;5017100;27;96896;-74
2023/05/23 05:38:12;;;;;;;9.30;4.97;;;;;;;23.27;35.74;100742.34;5016869;27;97281;-72
2023/05/23 05:40:38;;;;;;;11.20;4.93;;;;;;;23.08;35.94;100750.34;5016694;27;99953;-72
2023/05/23 05:43:05;;;;;;;10.30;4.82;;;;;;;23.17;35.47;100752.19;5022934;27;98776;-72
2023/05/23 05:45:33;;;;;;;11.80;4.60;;;;;;;23.05;35.99;100754.16;5013646;27;96800;-72
2023/05/23 05:47:59;;;;;;;14.63;5.18;;;;;;;23.04;37.05;100751.56;5015541;27;96796;-72
2023/05/23 05:50:25;;;;;;;7.57;4.53;;;;;;;23.22;36.65;100749.97;5019978;27;100342;-72
2023/05/23 05:52:52;;;;;;;14.10;4.88;;;;;;;23.19;36.89;100752.06;5014410;27;98775;-72
2023/05/23 05:55:18;;;;;;;14.23;4.97;;;;;;;23.18;36.42;100736.88;5025685;27;96795;-73
2023/05/23 05:57:44;;;;;;;9.20;5.13;;;;;;;23.19;36.68;100735.91;5021992;27;96920;-73
2023/05/23 06:00:14;;;;;;;15.20;5.45;;;;;;;23.39;37.08;100733.16;5028303;27;99224;-73
2023/05/23 06:02:42;;;;;;;12.48;4.95;;;;;;;23.68;36.11;100735.13;5032735;27;99187;-72
2023/05/23 06:05:11;;;;;;;15.05;5.47;;;;;;;23.51;37.31;100736.63;5026890;27;96988;-72
2023/05/23 06:07:37;;;;;;;12.18;5.05;;;;;;;23.44;36.46;100727.34;5027602;27;96843;-72
2023/05/23 06:10:05;;;;;;;10.27;5.07;;;;;;;23.16;37.47;100720.88;5029173;27;98775;-72
2023/05/23 06:12:31;;;;;;;13.70;4.90;;;;;;;23.36;36.62;100719.09;5032264;27;99215;-73
2023/05/23 06:14:58;;;;;;;14.07;5.88;;;;;;;23.22;36.71;100720.34;5031298;27;96875;-73
2023/05/23 06:17:24;;;;;;;19.02;5.32;;;;;;;23.67;36.08;100720.78;5031245;27;97180;-74
2023/05/23 06:19:52;;;;;;;10.55;5.82;;;;;;;23.61;35.62;100721.34;5031474;27;99001;-71
2023/05/23 06:22:19;;;;;;;12.13;5.53;;;;;;;23.37;38.18;100726.19;5019173;27;98258;-71
2023/05/23 06:24:45;;;;;;;11.23;4.88;;;;;;;23.64;37.64;100718.34;5031865;27;97759;-73
2023/05/23 06:27:12;;;;;;;21.52;5.15;;;;;;;23.28;37.75;100730.56;5020780;27;96934;-72
2023/05/23 06:29:38;;;;;;;11.65;5.15;;;;;;;23.67;36.74;100733.41;5024980;27;99239;-73
2023/05/23 06:32:06;;;;;;;10.27;5.30;;;;;;;23.67;36.73;100726.16;5028601;27;98825;-72
2023/05/23 06:34:32;;;;;;;11.82;4.72;;;;;;;23.63;36.79;100726.59;5031835;27;96749;-72
2023/05/23 06:37:00;;;;;;;9.93;5.60;;;;;;;23.62;36.05;100727.59;5025246;27;96913;-72
2023/05/23 06:39:26;;;;;;;12.95;5.50;;;;;;;23.94;35.05;100720.09;5032027;27;97682;-73
2023/05/23 06:41:54;;;;;;;15.63;5.05;;;;;;;23.99;35.43;100728.63;5024929;27;99922;-71
2023/05/23 06:44:20;;;;;;;21.73;5.22;;;;;;;24.16;34.98;100733.31;5033566;27;96830;-71
2023/05/23 06:46:46;;;;;;;15.60;6.25;;;;;;;24.29;35.07;100733.06;5024823;27;97020;-72
2023/05/23 06:49:13;;;;;;;12.32;5.85;;;;;;;24.55;34.61;100730.63;5036426;27;101208;-72
2023/05/23 06:51:39;;;;;;;16.13;5.72;;;;;;;24.56;34.24;100735.88;5025113;27;98781;-71
2023/05/23 06:54:07;;;;;;;11.30;4.97;;;;;;;24.72;34.22;100731.75;5029355;27;96783;-73
2023/05/23 06:56:34;;;;;;;13.93;5.43;;;;;;;24.80;33.60;100737.28;5035410;27;96845;-71
2023/05/23 06:59:00;;;;;;;19.20;6.07;;;;;;;24.90;33.14;100744.38;5035454;27;99011;-72
2023/05/23 07:01:26;;;;;;;9.60;4.82;;;;;;;25.16;33.07;100735.63;5031753;27;99182;-73
2023/05/23 07:03:53;;;;;;;13.48;5.28;;;;;;;25.09;32.83;100740.75;5028061;27;96655;-73
2023/05/23 07:06:19;;;;;;;8.98;5.20;;;;;;;25.31;32.79;100734.16;5033232;27;97167;-73
2023/05/23 07:08:46;;;;;;;8.32;4.75;;;;;;;25.30;33.16;100738.69;5030747;27;99118;-71
2023/05/23 07:11:14;;;;;;;18.23;5.68;;;;;;;25.35;33.34;100733.69;5034009;27;99078;-72
2023/05/23 07:13:40;;;;;;;13.27;4.93;;;;;;;25.65;32.93;100735.28;5030918;27;96816;-71
2023/05/23 07:16:06;;;;;;;11.38;5.38;;;;;;;25.44;33.17;100737.34;5026620;27;96901;-73
2023/05/23 07:18:33;;;;;;;17.08;5.25;;;;;;;25.32;33.11;100742.13;5032248;27;98987;-72
2023/05/23 07:21:00;;;;;;;14.93;5.07;;;;;;;25.16;33.52;100741.03;5027415;27;99577;-72
2023/05/23 07:23:26;;;;;;;15.73;5.38;;;;;;;25.66;32.77;100737.00;5025165;27;97320;-72
2023/05/23 07:25:52;;;;;;;15.60;6.07;;;;;;;25.85;32.69;100737.88;5040241;27;96946;-72
2023/05/23 07:28:21;;;;;;;12.68;5.40;;;;;;;26.01;32.42;100738.00;5025108;27;101661;-72
2023/05/23 07:30:48;;;;;;;10.95;5.13;;;;;;;26.39;32.09;100740.44;5029050;27;98780;-72
2023/05/23 07:33:14;;;;;;;15.18;5.47;;;;;;;26.33;31.97;100732.94;5020620;27;96715;-72
2023/05/23 07:35:41;;;;;;;16.40;5.88;;;;;;;26.20;31.88;100724.31;5032199;27;97201;-73
2023/05/23 07:38:07;;;;;;;12.75;4.75;;;;;;;26.40;31.54;100731.31;5029861;27;98101;-72
2023/05/23 07:40:35;;;;;;;9.35;5.70;;;;;;;26.65;31.18;100729.63;5030905;27;99502;-72
2023/05/23 07:43:01;;;;;;;10.30;5.38;;;;;;;26.37;31.73;100728.94;5021868;27;97231;-73
2023/05/23 07:45:30;;;;;;;9.82;4.05;;;;;;;26.03;31.32;100731.44;5023960;27;96823;-72
2023/05/23 07:47:56;;;;;;;12.02;4.93;;;;;;;26.00;30.87;100744.44;5026524;27;98924;-72
2023/05/23 07:50:23;;;;;;;10.90;5.10;;;;;;;26.18;30.13;100734.47;5027767;27;99186;-72
2023/05/23 07:52:51;;;;;;;10.35;4.63;;;;;;;26.04;30.77;100741.28;5026428;27;97692;-72
2023/05/23 07:55:17;;;;;;;8.70;4.45;;;;;;;25.77;30.75;100741.31;5025569;27;96724;-72
2023/05/23 07:57:44;;;;;;;14.45;4.30;;;;;;;25.75;31.21;100748.75;5025910;27;99297;-72
2023/05/23 08:00:12;;;;;;;11.23;4.90;;;;;;;25.89;31.51;100748.22;5035152;27;98772;-72
2023/05/23 08:02:39;;;;;;;9.38;4.93;;;;;;;26.09;31.08;100748.94;5019827;27;99402;-72
2023/05/23 08:05:08;;;;;;;16.08;5.32;;;;;;;26.33;30.96;100757.31;5028254;27;96941;-72
2023/05/23 08:07:35;;;;;;;9.23;5.07;;;;;;;26.75;30.70;100745.81;5022100;27;98866;-72
2023/05/23 08:10:01;;;;;;;20.77;5.53;;;;;;;26.99;30.69;100751.41;5022734;27;99078;-74
2023/05/23 08:12:27;;;;;;;8.02;4.57;;;;;;;27.15;30.27;100747.97;5026718;27;97088;-74
2023/05/23 08:14:54;;;;;;;8.38;4.57;;;;;;;27.20;30.15;100751.03;5026747;27;96803;-74
2023/05/23 08:17:20;;;;;;;8.15;4.75;;;;;;;26.98;30.45;100745.16;5020595;27;99058;-73
2023/05/23 08:19:48;;;;;;;8.65;4.70;;;;;;;26.86;30.29;100749.09;5024770;27;98926;-74
2023/05/23 08:22:15;;;;;;;16.45;4.80;;;;;;;26.82;30.77;100746.88;5016463;27;96738;-74
2023/05/23 08:24:41;;;;;;;8.88;4.45;;;;;;;26.73;30.89;100753.25;5026793;27;96836;-73
2023/05/23 08:27:08;;;;;;;7.75;4.70;;;;;;;26.93;30.45;100750.19;5017653;27;102540;-73
2023/05/23 08:29:35;;;;;;;9.43;4.47;;;;;;;27.15;30.75;100759.66;5026573;27;98771;-73
2023/05/23 08:32:01;;;;;;;11.80;4.63;;;;;;;26.82;31.21;100765.84;5019612;27;96873;-74
2023/05/23 08:34:28;;;;;;;11.18;4.38;;;;;;;27.15;30.95;100765.09;5025774;27;96878;-73
2023/05/23 08:36:56;;;;;;;9.43;4.65;;;;;;;27.05;31.16;100772.47;5022990;27;99982;-73
2023/05/23 08:39:22;;;;;;;12.95;4.50;;;;;;;26.83;31.84;100776.56;5018612;27;98854;-74
2023/05/23 08:41:49;;;;;;;7.50;4.68;;;;;;;26.27;32.99;100774.19;5020007;27;97222;-74
2023/05/23 08:44:15;;;;;;;16.95;5.10;;;;;;;26.51;32.66;100777.16;5018834;27;97017;-75
2023/05/23 08:46:45;;;;;;;8.50;4.70;;;;;;;27.18;31.89;100770.19;5021127;27;99249;-75
2023/05/23 08:49:16;;;;;;;6.30;5.05;;;;;;;27.18;31.89;100774.75;5017746;27;99139;-72
2023/05/23 08:51:44;;;;;;;8.10;4.70;;;;;;;27.14;32.32;100784.22;5022401;27;96858;-73
2023/05/23 08:54:15;;;;;;;9.57;4.90;;;;;;;27.51;31.68;100781.19;5019717;27;96822;-73
2023/05/23 08:56:43;;;;;;;13.70;5.07;;;;;;;27.00;32.49;100780.25;5019370;27;101896;-75
2023/05/23 08:59:11;;;;;;;10.38;4.95;;;;;;;27.07;33.13;100775.03;5019854;27;99003;-74
2023/05/23 09:01:40;;;;;;;8.65;4.68;;;;;;;27.74;32.16;100775.06;5017045;27;97289;-73
2023/05/23 09:04:06;;;;;;;11.27;5.53;;;;;;;27.46;33.08;100788.97;5015302;27;96874;-74
2023/05/23 09:06:33;;;;;;;9.05;5.28;;;;;;;26.85;34.60;100787.22;5026419;27;99150;-73
2023/05/23 09:08:59;;;;;;;7.93;4.93;;;;;;;26.93;34.98;100787.31;5018353;27;99175;-74
2023/05/23 09:11:27;;;;;;;14.63;5.68;;;;;;;26.54;36.04;100795.78;5028723;27;96709;-74
2023/05/23 09:13:54;;;;;;;9.57;5.10;;;;;;;26.58;36.40;100796.34;5019710;27;96841;-74
2023/05/23 09:16:21;;;;;;;9.88;6.03;;;;;;;26.53;36.55;100795.94;5024409;27;98917;-73
2023/05/23 09:18:47;;;;;;;14.80;5.35;;;;;;;26.59;36.71;100798.88;5022340;27;99178;-72
2023/05/23 09:21:14;;;;;;;11.02;5.55;;;;;;;26.91;36.56;100802.91;5015682;27;97296;-74
2023/05/23 09:23:41;;;;;;;9.05;5.80;;;;;;;27.17;36.05;100797.50;5015994;28;97037;-73
2023/05/23 09:26:09;;;;;;;9.77;5.93;;;;;;;26.94;36.66;100797.16;5013261;27;98184;-73
2023/05/23 09:28:39;;;;;;;10.60;5.30;;;;;;;26.93;36.93;100800.88;5024086;27;101238;-74
2023/05/23 09:31:07;;;;;;;9.45;5.40;;;;;;;27.36;36.23;100795.41;5012429;27;96829;-74
2023/05/23 09:33:36;;;;;;;7.93;5.20;;;;;;;27.45;36.29;100803.56;5018369;27;96905;-75
2023/05/23 09:36:04;;;;;;;9.85;4.97;;;;;;;27.12;36.86;100807.94;5009904;27;97787;-74
2023/05/23 09:38:31;;;;;;;9.13;5.15;;;;;;;27.09;37.01;100801.00;5013608;28;98995;-73
2023/05/23 09:40:59;;;;;;;10.30;5.60;;;;;;;27.03;36.79;100809.78;5010949;27;96919;-73
2023/05/23 09:43:25;;;;;;;8.07;5.32;;;;;;;26.76;37.54;100802.59;5013565;27;97153;-72
2023/05/23 09:45:55;;;;;;;9.57;5.53;;;;;;;26.76;37.74;100805.28;5011131;27;99121;-73
2023/05/23 09:48:28;;;;;;;10.90;4.97;;;;;;;26.73;37.78;100813.72;5020590;27;102675;-73
2023/05/23 09:50:55;;;;;;;11.65;5.93;;;;;;;27.16;37.00;100803.91;5011325;27;98748;-73
2023/05/23 09:53:21;;;;;;;8.50;5.50;;;;;;;26.76;37.90;100810.72;5020217;27;96820;-72
2023/05/23 09:55:50;;;;;;;10.85;5.97;;;;;;;26.82;37.96;100801.94;5016353;27;100998;-73
2023/05/23 09:58:18;;;;;;;11.07;6.00;;;;;;;27.07;37.30;100805.72;5019116;27;101156;-73
2023/05/23 10:00:46;;;;;;;10.15;5.03;;;;;;;27.20;37.21;100798.00;5010433;27;96845;-73
2023/05/23 10:03:16;;;;;;;6.20;5.13;;;;;;;27.19;36.91;100798.16;5019249;27;96925;-74
2023/05/23 10:05:46;;;;;;;9.48;4.80;;;;;;;27.54;35.96;100805.34;5013537;27;101152;-73
2023/05/23 10:08:16;;;;;;;11.18;5.57;;;;;;;27.32;36.28;100802.13;5024469;27;97950;-74
2023/05/23 10:11:36;;;;;;;6.05;4.78;;;;;;;27.80;35.67;100808.00;5015499;27;97306;-73
2023/05/23 10:14:06;;;;;;;9.02;5.63;;;;;;;27.59;36.56;100811.97;5031224;27;97209;-73
2023/05/23 10:16:39;;;;;;;8.82;5.47;;;;;;;27.52;36.68;100812.78;5020092;28;99042;-73
2023/05/23 10:19:18;;;;;;;6.55;5.95;;;;;;;27.31;37.29;100808.56;5021609;27;98799;-73
2023/05/23 10:21:50;;;;;;;13.98;6.60;;;;;;;27.38;37.63;100808.78;5035811;27;97040;-73
2023/05/23 10:24:16;;;;;;;24.30;6.18;;;;;;;26.87;38.75;100815.03;5021989;27;97457;-72
2023/05/23 10:26:43;;;;;;;7.55;6.20;;;;;;;26.92;38.95;100818.13;5026724;27;99131;-73
2023/05/23 10:29:10;;;;;;;8.35;6.63;;;;;;;27.01;38.94;100816.34;5012637;27;98242;-74
2023/05/23 10:31:36;;;;;;;11.57;6.93;;;;;;;26.92;39.21;100818.13;5020917;27;96781;-74
2023/05/23 10:34:14;;;;;;;6.85;6.15;;;;;;;27.31;38.60;100808.56;5018162;27;96908;-73
2023/05/23 10:36:48;;;;;;;9.20;7.40;;;;;;;27.25;39.26;100808.38;5012755;27;100688;-73
2023/05/23 10:39:22;;;;;;;10.07;7.32;;;;;;;26.50;41.39;100810.66;5009806;27;101007;-74
2023/05/23 10:41:52;;;;;;;8.75;7.30;;;;;;;26.33;42.11;100816.06;5011537;27;96795;-73
2023/05/23 10:44:26;;;;;;;14.40;8.27;;;;;;;26.17;43.61;100816.72;5026951;27;97458;-73
2023/05/23 10:46:56;;;;;;;11.00;9.02;;;;;;;25.65;45.31;100823.72;5029262;27;98481;-73
2023/05/23 10:49:38;;;;;;;11.75;8.45;;;;;;;25.98;45.46;100817.72;5023005;27;99195;-73
2023/05/23 10:52:06;;;;;;;11.52;9.50;;;;;;;25.89;45.92;100831.28;5025785;27;97087;-73
2023/05/23 10:54:34;;;;;;;11.35;9.65;;;;;;;25.95;45.75;100828.81;5022917;27;97088;-72
2023/05/23 10:57:04;;;;;;;16.40;9.63;;;;;;;25.63;46.73;100829.28;5010628;27;99053;-74
2023/05/23 10:59:31;;;;;;;10.82;8.38;;;;;;;25.57;47.15;100843.41;5017760;27;97816;-72
2023/05/23 11:02:00;;;;;;;11.65;9.60;;;;;;;26.29;45.14;100830.94;5021739;27;97170;-73
2023/05/23 11:04:28;;;;;;;14.07;10.98;;;;;;;26.40;44.55;100826.13;5018453;27;97350;-73
2023/05/23 11:06:55;;;;;;;17.80;10.68;;;;;;;26.40;44.67;100834.25;5020437;27;98931;-72
2023/05/23 11:09:22;;;;;;;14.38;11.88;;;;;;;26.29;45.02;100836.34;5026994;27;99260;-73
2023/05/23 11:11:57;;;;;;;19.33;13.27;;;;;;;25.78;45.65;100841.31;5022092;27;96899;-73
2023/05/23 11:14:53;;;;;;;14.88;12.63;;;;;;;25.37;47.31;100841.72;5028292;27;97365;-74
2023/05/23 11:17:31;;;;;;;17.10;12.38;;;;;;;25.33;47.15;100838.47;5016070;27;99855;-75
2023/05/23 11:20:04;;;;;;;17.23;11.50;;;;;;;25.90;45.71;100838.41;5018771;27;98904;-73
2023/05/23 11:22:31;;;;;;;18.63;12.30;;;;;;;25.63;46.25;100845.50;5029150;27;98105;-72
2023/05/23 11:24:59;;;;;;;20.33;13.95;;;;;;;25.41;46.65;100856.66;5031632;27;97047;-73